sensor_id;sensor_type;location;lat;lon;timestamp;P1;durP1;ratioP1;P2;durP2;ratioP2
56051;SDS011;41919;42.648;23.384;2023-10-13T04:26:58;7.88;;;4.47;;
56051;SDS011;41919;42.648;23.384;2023-10-13T04:29:42;7.25;;;4.00;;
56051;SDS011;41919;42.648;23.384;2023-10-13T04:32:16;13.70;;;4.32;;
56051;SDS011;41919;42.648;23.384;2023-10-13T04:34:57;7.18;;;4.28;;
56051;SDS011;41919;42.648;23.384;2023-10-13T04:37:39;4.82;;;3.38;;
56051;SDS011;41919;42.648;23.384;2023-10-13T04:40:26;7.18;;;3.88;;
56051;SDS011;41919;42.648;23.384;2023-10-13T04:42:53;8.48;;;4.47;;
56051;SDS011;41919;42.648;23.384;2023-10-13T04:45:21;7.63;;;4.47;;
56051;SDS011;41919;42.648;23.384;2023-10-13T04:47:56;6.15;;;4.60;;
56051;SDS011;41919;42.648;23.384;2023-10-13T04:50:42;8.65;;;4.60;;
56051;SDS011;41919;42.648;23.384;2023-10-13T04:53:15;4.95;;;4.20;;
56051;SDS011;41919;42.648;23.384;2023-10-13T04:55:58;11.25;;;4.85;;
56051;SDS011;41919;42.648;23.384;2023-10-13T04:58:27;8.00;;;4.50;;
56051;SDS011;41919;42.648;23.384;2023-10-13T05:01:12;7.47;;;5.03;;
56051;SDS011;41919;42.648;23.384;2023-10-13T05:03:50;7.72;;;4.95;;
56051;SDS011;41919;42.648;23.384;2023-10-13T05:06:38;11.10;;;5.45;;
56051;SDS011;41919;42.648;23.384;2023-10-13T05:09:06;8.63;;;5.20;;
56051;SDS011;41919;42.648;23.384;2023-10-13T05:11:50;11.35;;;5.20;;
56051;SDS011;41919;42.648;23.384;2023-10-13T05:14:34;12.98;;;5.20;;
56051;SDS011;41919;42.648;23.384;2023-10-13T05:17:18;8.93;;;4.65;;
56051;SDS011;41919;42.648;23.384;2023-10-13T05:20:02;5.72;;;4.40;;
56051;SDS011;41919;42.648;23.384;2023-10-13T05:22:47;8.32;;;5.35;;
56051;SDS011;41919;42.648;23.384;2023-10-13T05:25:38;7.03;;;4.25;;
56051;SDS011;41919;42.648;23.384;2023-10-13T05:28:22;5.15;;;4.20;;
56051;SDS011;41919;42.648;23.384;2023-10-13T05:31:07;8.55;;;5.13;;
56051;SDS011;41919;42.648;23.384;2023-10-13T05:33:51;7.93;;;4.13;;
56051;SDS011;41919;42.648;23.384;2023-10-13T05:36:35;6.28;;;4.25;;
56051;SDS011;41919;42.648;23.384;2023-10-13T05:39:19;7.13;;;4.35;;
56051;SDS011;41919;42.648;23.384;2023-10-13T05:42:04;7.38;;;4.47;;
56051;SDS011;41919;42.648;23.384;2023-10-13T05:44:48;6.60;;;3.88;;
56051;SDS011;41919;42.648;23.384;2023-10-13T05:47:32;9.07;;;5.55;;
56051;SDS011;41919;42.648;23.384;2023-10-13T05:50:07;7.22;;;4.90;;
56051;SDS011;41919;42.648;23.384;2023-10-13T05:52:45;9.70;;;6.60;;
56051;SDS011;41919;42.648;23.384;2023-10-13T05:55:30;13.57;;;8.23;;
56051;SDS011;41919;42.648;23.384;2023-10-13T05:58:15;16.30;;;7.97;;
56051;SDS011;41919;42.648;23.384;2023-10-13T06:00:59;14.85;;;9.23;;
56051;SDS011;41919;42.648;23.384;2023-10-13T06:03:44;10.52;;;6.82;;
56051;SDS011;41919;42.648;23.384;2023-10-13T06:06:28;10.70;;;6.30;;
56051;SDS011;41919;42.648;23.384;2023-10-13T06:09:12;15.88;;;7.13;;
56051;SDS011;41919;42.648;23.384;2023-10-13T06:14:40;11.02;;;6.22;;
56051;SDS011;41919;42.648;23.384;2023-10-13T06:20:07;9.68;;;6.10;;
56051;SDS011;41919;42.648;23.384;2023-10-13T06:22:52;9.15;;;5.22;;
56051;SDS011;41919;42.648;23.384;2023-10-13T06:25:36;7.70;;;5.63;;
56051;SDS011;41919;42.648;23.384;2023-10-13T06:28:21;13.13;;;5.38;;
56051;SDS011;41919;42.648;23.384;2023-10-13T06:31:05;6.97;;;5.25;;
56051;SDS011;41919;42.648;23.384;2023-10-13T06:33:36;7.70;;;5.40;;
56051;SDS011;41919;42.648;23.384;2023-10-13T06:36:10;6.30;;;5.15;;
56051;SDS011;41919;42.648;23.384;2023-10-13T06:38:35;10.15;;;6.05;;
56051;SDS011;41919;42.648;23.384;2023-10-13T06:41:07;8.13;;;5.85;;
56051;SDS011;41919;42.648;23.384;2023-10-13T06:43:33;8.68;;;5.70;;
56051;SDS011;41919;42.648;23.384;2023-10-13T06:46:08;8.13;;;6.28;;
56051;SDS011;41919;42.648;23.384;2023-10-13T06:48:39;7.90;;;5.60;;
56051;SDS011;41919;42.648;23.384;2023-10-13T06:51:06;7.78;;;5.57;;
56051;SDS011;41919;42.648;23.384;2023-10-13T06:53:52;8.30;;;6.10;;
56051;SDS011;41919;42.648;23.384;2023-10-13T06:56:21;8.85;;;5.63;;
56051;SDS011;41919;42.648;23.384;2023-10-13T06:58:52;13.30;;;6.18;;
56051;SDS011;41919;42.648;23.384;2023-10-13T07:01:24;8.55;;;6.53;;
56051;SDS011;41919;42.648;23.384;2023-10-13T07:03:50;14.27;;;6.53;;
56051;SDS011;41919;42.648;23.384;2023-10-13T07:06:19;9.80;;;6.35;;
56051;SDS011;41919;42.648;23.384;2023-10-13T07:08:46;13.43;;;6.18;;
56051;SDS011;41919;42.648;23.384;2023-10-13T07:11:17;9.02;;;6.72;;
56051;SDS011;41919;42.648;23.384;2023-10-13T07:14:01;10.15;;;6.95;;
56051;SDS011;41919;42.648;23.384;2023-10-13T07:16:42;9.65;;;6.28;;
56051;SDS011;41919;42.648;23.384;2023-10-13T07:19:12;11.30;;;6.15;;
56051;SDS011;41919;42.648;23.384;2023-10-13T07:21:42;9.43;;;6.32;;
56051;SDS011;41919;42.648;23.384;2023-10-13T07:24:10;16.15;;;6.78;;
56051;SDS011;41919;42.648;23.384;2023-10-13T07:26:37;9.25;;;6.65;;
56051;SDS011;41919;42.648;23.384;2023-10-13T07:29:10;10.20;;;6.47;;
56051;SDS011;41919;42.648;23.384;2023-10-13T07:31:37;9.95;;;6.65;;
56051;SDS011;41919;42.648;23.384;2023-10-13T07:34:05;11.20;;;6.38;;
56051;SDS011;41919;42.648;23.384;2023-10-13T07:36:37;12.52;;;6.65;;
56051;SDS011;41919;42.648;23.384;2023-10-13T07:39:08;12.52;;;7.20;;
56051;SDS011;41919;42.648;23.384;2023-10-13T07:41:50;13.23;;;8.15;;
56051;SDS011;41919;42.648;23.384;2023-10-13T07:44:19;9.40;;;7.07;;
56051;SDS011;41919;42.648;23.384;2023-10-13T07:46:49;11.85;;;7.47;;
56051;SDS011;41919;42.648;23.384;2023-10-13T07:49:23;13.73;;;7.55;;
56051;SDS011;41919;42.648;23.384;2023-10-13T07:51:50;9.27;;;6.57;;
56051;SDS011;41919;42.648;23.384;2023-10-13T07:54:22;13.45;;;7.22;;
56051;SDS011;41919;42.648;23.384;2023-10-13T07:56:47;15.48;;;7.72;;
56051;SDS011;41919;42.648;23.384;2023-10-13T07:59:13;12.45;;;6.68;;
56051;SDS011;41919;42.648;23.384;2023-10-13T08:01:42;26.67;;;8.82;;
56051;SDS011;41919;42.648;23.384;2023-10-13T08:04:08;12.50;;;7.90;;
56051;SDS011;41919;42.648;23.384;2023-10-13T08:06:37;12.20;;;7.35;;
56051;SDS011;41919;42.648;23.384;2023-10-13T08:09:06;20.02;;;7.97;;
56051;SDS011;41919;42.648;23.384;2023-10-13T08:11:33;17.17;;;8.27;;
56051;SDS011;41919;42.648;23.384;2023-10-13T08:14:02;21.30;;;8.75;;
56051;SDS011;41919;42.648;23.384;2023-10-13T08:16:41;17.30;;;7.97;;
56051;SDS011;41919;42.648;23.384;2023-10-13T08:19:25;18.27;;;9.88;;
56051;SDS011;41919;42.648;23.384;2023-10-13T08:22:10;14.55;;;9.02;;
56051;SDS011;41919;42.648;23.384;2023-10-13T08:24:45;25.73;;;9.30;;
56051;SDS011;41919;42.648;23.384;2023-10-13T08:27:15;13.75;;;9.35;;
56051;SDS011;41919;42.648;23.384;2023-10-13T08:30:14;15.77;;;9.23;;
56051;SDS011;41919;42.648;23.384;2023-10-13T08:32:53;17.15;;;9.90;;
56051;SDS011;41919;42.648;23.384;2023-10-13T08:35:24;15.90;;;8.43;;
56051;SDS011;41919;42.648;23.384;2023-10-13T08:37:59;17.48;;;9.65;;
56051;SDS011;41919;42.648;23.384;2023-10-13T08:40:29;22.05;;;10.30;;
56051;SDS011;41919;42.648;23.384;2023-10-13T08:43:13;16.20;;;10.13;;
56051;SDS011;41919;42.648;23.384;2023-10-13T08:45:42;18.83;;;9.95;;
56051;SDS011;41919;42.648;23.384;2023-10-13T08:48:09;19.67;;;10.80;;
56051;SDS011;41919;42.648;23.384;2023-10-13T08:50:48;16.98;;;10.10;;
56051;SDS011;41919;42.648;23.384;2023-10-13T08:53:18;15.32;;;9.32;;
56051;SDS011;41919;42.648;23.384;2023-10-13T08:55:56;24.23;;;9.27;;
56051;SDS011;41919;42.648;23.384;2023-10-13T09:01:25;14.18;;;8.77;;
56051;SDS011;41919;42.648;23.384;2023-10-13T09:04:05;18.35;;;10.02;;
56051;SDS011;41919;42.648;23.384;2023-10-13T09:14:51;17.40;;;9.55;;
56051;SDS011;41919;42.648;23.384;2023-10-13T09:17:24;18.48;;;10.50;;
56051;SDS011;41919;42.648;23.384;2023-10-13T09:20:03;21.25;;;10.63;;
56051;SDS011;41919;42.648;23.384;2023-10-13T09:22:47;22.85;;;9.68;;
56051;SDS011;41919;42.648;23.384;2023-10-13T09:25:30;13.65;;;9.15;;
56051;SDS011;41919;42.648;23.384;2023-10-13T09:28:21;15.88;;;9.23;;
56051;SDS011;41919;42.648;23.384;2023-10-13T09:30:53;19.08;;;10.20;;
56051;SDS011;41919;42.648;23.384;2023-10-13T09:33:24;18.40;;;9.50;;
56051;SDS011;41919;42.648;23.384;2023-10-13T09:36:15;16.42;;;9.73;;
56051;SDS011;41919;42.648;23.384;2023-10-13T09:38:42;18.52;;;10.65;;
56051;SDS011;41919;42.648;23.384;2023-10-13T09:41:14;14.35;;;9.98;;
56051;SDS011;41919;42.648;23.384;2023-10-13T09:43:51;17.48;;;10.50;;
56051;SDS011;41919;42.648;23.384;2023-10-13T09:46:20;14.68;;;9.73;;
56051;SDS011;41919;42.648;23.384;2023-10-13T09:48:52;27.65;;;10.55;;
56051;SDS011;41919;42.648;23.384;2023-10-13T09:51:32;20.00;;;9.43;;
56051;SDS011;41919;42.648;23.384;2023-10-13T09:56:46;19.17;;;8.40;;
56051;SDS011;41919;42.648;23.384;2023-10-13T10:01:45;16.38;;;8.48;;
56051;SDS011;41919;42.648;23.384;2023-10-13T10:04:17;18.48;;;8.48;;
56051;SDS011;41919;42.648;23.384;2023-10-13T10:06:54;18.70;;;8.00;;
56051;SDS011;41919;42.648;23.384;2023-10-13T10:09:26;16.33;;;8.80;;
56051;SDS011;41919;42.648;23.384;2023-10-13T10:17:55;21.25;;;8.25;;
56051;SDS011;41919;42.648;23.384;2023-10-13T10:20:33;15.95;;;7.88;;
56051;SDS011;41919;42.648;23.384;2023-10-13T10:23:10;23.73;;;8.40;;
56051;SDS011;41919;42.648;23.384;2023-10-13T10:25:48;13.65;;;7.28;;
56051;SDS011;41919;42.648;23.384;2023-10-13T10:28:16;13.43;;;6.88;;
56051;SDS011;41919;42.648;23.384;2023-10-13T10:30:42;14.43;;;6.95;;
56051;SDS011;41919;42.648;23.384;2023-10-13T10:33:09;13.00;;;6.57;;
56051;SDS011;41919;42.648;23.384;2023-10-13T10:35:47;8.77;;;5.60;;
56051;SDS011;41919;42.648;23.384;2023-10-13T10:38:25;12.32;;;5.78;;
56051;SDS011;41919;42.648;23.384;2023-10-13T10:41:06;15.43;;;5.47;;
56051;SDS011;41919;42.648;23.384;2023-10-13T10:46:12;8.15;;;4.72;;
56051;SDS011;41919;42.648;23.384;2023-10-13T10:51:12;10.48;;;4.53;;
56051;SDS011;41919;42.648;23.384;2023-10-13T10:53:51;7.03;;;4.95;;
56051;SDS011;41919;42.648;23.384;2023-10-13T10:56:19;9.70;;;3.75;;
56051;SDS011;41919;42.648;23.384;2023-10-13T10:58:59;5.93;;;3.90;;
56051;SDS011;41919;42.648;23.384;2023-10-13T11:01:27;9.40;;;3.25;;
56051;SDS011;41919;42.648;23.384;2023-10-13T11:04:01;7.50;;;3.38;;
56051;SDS011;41919;42.648;23.384;2023-10-13T11:06:44;6.95;;;3.75;;
56051;SDS011;41919;42.648;23.384;2023-10-13T11:09:14;8.75;;;3.53;;
56051;SDS011;41919;42.648;23.384;2023-10-13T11:11:52;9.60;;;3.55;;
56051;SDS011;41919;42.648;23.384;2023-10-13T11:16:53;6.78;;;3.50;;
56051;SDS011;41919;42.648;23.384;2023-10-13T11:19:20;9.25;;;3.75;;
56051;SDS011;41919;42.648;23.384;2023-10-13T11:21:51;7.32;;;3.40;;
56051;SDS011;41919;42.648;23.384;2023-10-13T11:24:18;10.32;;;3.45;;
56051;SDS011;41919;42.648;23.384;2023-10-13T11:26:46;8.13;;;3.20;;
56051;SDS011;41919;42.648;23.384;2023-10-13T11:29:19;10.05;;;3.33;;
56051;SDS011;41919;42.648;23.384;2023-10-13T11:31:47;8.55;;;3.20;;
56051;SDS011;41919;42.648;23.384;2023-10-13T11:34:24;11.02;;;2.83;;
56051;SDS011;41919;42.648;23.384;2023-10-13T11:36:50;6.65;;;3.35;;
56051;SDS011;41919;42.648;23.384;2023-10-13T11:39:16;8.95;;;3.08;;
56051;SDS011;41919;42.648;23.384;2023-10-13T11:41:50;9.48;;;2.85;;
56051;SDS011;41919;42.648;23.384;2023-10-13T11:44:19;7.07;;;2.75;;
56051;SDS011;41919;42.648;23.384;2023-10-13T11:46:45;4.63;;;2.20;;
56051;SDS011;41919;42.648;23.384;2023-10-13T11:49:13;5.95;;;2.50;;
56051;SDS011;41919;42.648;23.384;2023-10-13T11:51:39;5.75;;;2.88;;
56051;SDS011;41919;42.648;23.384;2023-10-13T11:54:14;7.57;;;2.40;;
56051;SDS011;41919;42.648;23.384;2023-10-13T11:56:41;8.15;;;2.53;;
56051;SDS011;41919;42.648;23.384;2023-10-13T11:59:07;5.03;;;2.50;;
56051;SDS011;41919;42.648;23.384;2023-10-13T12:01:41;5.65;;;2.80;;
56051;SDS011;41919;42.648;23.384;2023-10-13T12:04:29;6.43;;;2.50;;
56051;SDS011;41919;42.648;23.384;2023-10-13T12:06:58;7.88;;;2.70;;
56051;SDS011;41919;42.648;23.384;2023-10-13T12:09:49;6.47;;;2.50;;
56051;SDS011;41919;42.648;23.384;2023-10-13T12:14:47;5.97;;;2.88;;
56051;SDS011;41919;42.648;23.384;2023-10-13T12:17:27;6.18;;;2.65;;
56051;SDS011;41919;42.648;23.384;2023-10-13T12:19:59;5.63;;;2.10;;
56051;SDS011;41919;42.648;23.384;2023-10-13T12:22:25;3.67;;;2.22;;
56051;SDS011;41919;42.648;23.384;2023-10-13T12:25:10;3.00;;;1.92;;
56051;SDS011;41919;42.648;23.384;2023-10-13T12:27:59;6.78;;;2.40;;
56051;SDS011;41919;42.648;23.384;2023-10-13T12:30:44;7.90;;;2.38;;
56051;SDS011;41919;42.648;23.384;2023-10-13T12:33:21;5.90;;;2.42;;
56051;SDS011;41919;42.648;23.384;2023-10-13T12:35:59;5.13;;;2.22;;
56051;SDS011;41919;42.648;23.384;2023-10-13T12:38:51;6.05;;;2.15;;
56051;SDS011;41919;42.648;23.384;2023-10-13T12:41:37;5.25;;;2.40;;
56051;SDS011;41919;42.648;23.384;2023-10-13T12:44:35;4.10;;;2.20;;
56051;SDS011;41919;42.648;23.384;2023-10-13T12:47:19;6.47;;;2.58;;
56051;SDS011;41919;42.648;23.384;2023-10-13T12:50:02;7.95;;;2.38;;
56051;SDS011;41919;42.648;23.384;2023-10-13T12:52:39;2.65;;;1.98;;
56051;SDS011;41919;42.648;23.384;2023-10-13T12:55:04;5.40;;;2.47;;
56051;SDS011;41919;42.648;23.384;2023-10-13T12:57:34;6.38;;;2.25;;
56051;SDS011;41919;42.648;23.384;2023-10-13T13:00:08;2.92;;;2.10;;
56051;SDS011;41919;42.648;23.384;2023-10-13T13:02:42;5.25;;;2.10;;
56051;SDS011;41919;42.648;23.384;2023-10-13T13:05:08;7.28;;;2.63;;
56051;SDS011;41919;42.648;23.384;2023-10-13T13:07:37;3.80;;;2.20;;
56051;SDS011;41919;42.648;23.384;2023-10-13T13:10:12;4.00;;;2.30;;
56051;SDS011;41919;42.648;23.384;2023-10-13T13:12:39;5.65;;;2.65;;
56051;SDS011;41919;42.648;23.384;2023-10-13T13:15:06;6.75;;;2.50;;
56051;SDS011;41919;42.648;23.384;2023-10-13T13:17:36;4.07;;;2.15;;
56051;SDS011;41919;42.648;23.384;2023-10-13T13:20:06;6.03;;;2.30;;
56051;SDS011;41919;42.648;23.384;2023-10-13T13:22:53;3.03;;;2.10;;
56051;SDS011;41919;42.648;23.384;2023-10-13T13:25:20;4.22;;;2.22;;
56051;SDS011;41919;42.648;23.384;2023-10-13T13:27:51;10.77;;;2.72;;
56051;SDS011;41919;42.648;23.384;2023-10-13T13:30:16;5.97;;;2.30;;
56051;SDS011;41919;42.648;23.384;2023-10-13T13:32:45;7.18;;;2.60;;
56051;SDS011;41919;42.648;23.384;2023-10-13T13:35:11;4.80;;;2.53;;
56051;SDS011;41919;42.648;23.384;2023-10-13T13:37:38;4.15;;;2.58;;
56051;SDS011;41919;42.648;23.384;2023-10-13T13:40:04;3.15;;;2.55;;
56051;SDS011;41919;42.648;23.384;2023-10-13T13:42:47;4.97;;;2.80;;
56051;SDS011;41919;42.648;23.384;2023-10-13T13:45:13;5.40;;;2.33;;
56051;SDS011;41919;42.648;23.384;2023-10-13T13:47:56;4.22;;;2.40;;
56051;SDS011;41919;42.648;23.384;2023-10-13T13:50:23;8.52;;;2.50;;
56051;SDS011;41919;42.648;23.384;2023-10-13T13:52:51;7.28;;;2.38;;
56051;SDS011;41919;42.648;23.384;2023-10-13T13:55:18;6.90;;;2.78;;
56051;SDS011;41919;42.648;23.384;2023-10-13T13:57:55;6.68;;;2.40;;
56051;SDS011;41919;42.648;23.384;2023-10-13T14:00:21;8.07;;;2.50;;
56051;SDS011;41919;42.648;23.384;2023-10-13T14:03:13;5.07;;;2.97;;
56051;SDS011;41919;42.648;23.384;2023-10-13T14:05:59;6.82;;;2.92;;
56051;SDS011;41919;42.648;23.384;2023-10-13T14:08:26;9.13;;;2.92;;
56051;SDS011;41919;42.648;23.384;2023-10-13T14:10:55;4.60;;;3.00;;
56051;SDS011;41919;42.648;23.384;2023-10-13T14:13:42;6.85;;;2.90;;
56051;SDS011;41919;42.648;23.384;2023-10-13T14:16:14;6.43;;;2.95;;
56051;SDS011;41919;42.648;23.384;2023-10-13T14:18:47;8.43;;;2.58;;
56051;SDS011;41919;42.648;23.384;2023-10-13T14:21:14;4.43;;;2.67;;
56051;SDS011;41919;42.648;23.384;2023-10-13T14:23:48;4.20;;;2.75;;
56051;SDS011;41919;42.648;23.384;2023-10-13T14:26:14;9.73;;;3.22;;
56051;SDS011;41919;42.648;23.384;2023-10-13T14:28:45;7.05;;;3.00;;
56051;SDS011;41919;42.648;23.384;2023-10-13T14:31:30;5.30;;;2.45;;
56051;SDS011;41919;42.648;23.384;2023-10-13T14:33:56;4.20;;;2.85;;
56051;SDS011;41919;42.648;23.384;2023-10-13T14:36:22;9.60;;;2.97;;
56051;SDS011;41919;42.648;23.384;2023-10-13T14:38:48;6.07;;;2.97;;
56051;SDS011;41919;42.648;23.384;2023-10-13T14:41:17;10.77;;;3.10;;
56051;SDS011;41919;42.648;23.384;2023-10-13T14:43:43;6.88;;;2.97;;
56051;SDS011;41919;42.648;23.384;2023-10-13T14:46:16;5.20;;;2.50;;
56051;SDS011;41919;42.648;23.384;2023-10-13T14:48:42;6.32;;;2.70;;
56051;SDS011;41919;42.648;23.384;2023-10-13T14:51:09;5.85;;;2.42;;
56051;SDS011;41919;42.648;23.384;2023-10-13T14:53:43;7.13;;;2.50;;
56051;SDS011;41919;42.648;23.384;2023-10-13T14:56:12;7.25;;;2.67;;
56051;SDS011;41919;42.648;23.384;2023-10-13T14:58:38;6.60;;;2.50;;
56051;SDS011;41919;42.648;23.384;2023-10-13T15:01:13;7.68;;;2.97;;
56051;SDS011;41919;42.648;23.384;2023-10-13T15:03:52;6.60;;;2.72;;
56051;SDS011;41919;42.648;23.384;2023-10-13T15:06:23;6.30;;;2.90;;
56051;SDS011;41919;42.648;23.384;2023-10-13T15:08:50;8.35;;;3.00;;
56051;SDS011;41919;42.648;23.384;2023-10-13T15:11:19;6.40;;;3.30;;
56051;SDS011;41919;42.648;23.384;2023-10-13T15:13:45;6.65;;;3.40;;
56051;SDS011;41919;42.648;23.384;2023-10-13T15:16:14;7.65;;;3.47;;
56051;SDS011;41919;42.648;23.384;2023-10-13T15:18:42;7.72;;;3.42;;
56051;SDS011;41919;42.648;23.384;2023-10-13T15:21:11;8.20;;;3.13;;
56051;SDS011;41919;42.648;23.384;2023-10-13T15:23:43;6.00;;;3.50;;
56051;SDS011;41919;42.648;23.384;2023-10-13T15:26:09;8.13;;;3.10;;
56051;SDS011;41919;42.648;23.384;2023-10-13T15:28:35;7.07;;;3.67;;
56051;SDS011;41919;42.648;23.384;2023-10-13T15:31:13;14.10;;;3.83;;
56051;SDS011;41919;42.648;23.384;2023-10-13T15:33:50;8.38;;;3.13;;
56051;SDS011;41919;42.648;23.384;2023-10-13T15:36:17;7.10;;;2.85;;
56051;SDS011;41919;42.648;23.384;2023-10-13T15:38:44;11.50;;;3.50;;
56051;SDS011;41919;42.648;23.384;2023-10-13T15:41:11;13.80;;;3.30;;
56051;SDS011;41919;42.648;23.384;2023-10-13T15:43:37;5.40;;;2.97;;
56051;SDS011;41919;42.648;23.384;2023-10-13T15:46:09;8.18;;;3.00;;
56051;SDS011;41919;42.648;23.384;2023-10-13T15:48:41;11.15;;;3.55;;
56051;SDS011;41919;42.648;23.384;2023-10-13T15:51:12;8.73;;;3.15;;
56051;SDS011;41919;42.648;23.384;2023-10-13T15:53:38;8.15;;;3.42;;
56051;SDS011;41919;42.648;23.384;2023-10-13T15:56:04;13.43;;;3.80;;
56051;SDS011;41919;42.648;23.384;2023-10-13T15:58:35;8.82;;;3.10;;
56051;SDS011;41919;42.648;23.384;2023-10-13T16:01:00;8.05;;;2.90;;
56051;SDS011;41919;42.648;23.384;2023-10-13T16:03:26;8.63;;;3.30;;
56051;SDS011;41919;42.648;23.384;2023-10-13T16:05:52;9.13;;;2.97;;
56051;SDS011;41919;42.648;23.384;2023-10-13T16:08:18;5.03;;;2.70;;
56051;SDS011;41919;42.648;23.384;2023-10-13T16:10:43;7.22;;;3.55;;
56051;SDS011;41919;42.648;23.384;2023-10-13T16:13:09;5.20;;;2.72;;
56051;SDS011;41919;42.648;23.384;2023-10-13T16:15:40;5.97;;;2.05;;
56051;SDS011;41919;42.648;23.384;2023-10-13T16:18:07;4.55;;;2.35;;
56051;SDS011;41919;42.648;23.384;2023-10-13T16:20:36;11.57;;;2.40;;
56051;SDS011;41919;42.648;23.384;2023-10-13T16:23:02;9.75;;;2.50;;
56051;SDS011;41919;42.648;23.384;2023-10-13T16:25:28;2.78;;;2.08;;
56051;SDS011;41919;42.648;23.384;2023-10-13T16:27:53;7.35;;;2.30;;
56051;SDS011;41919;42.648;23.384;2023-10-13T16:30:19;6.00;;;2.25;;
56051;SDS011;41919;42.648;23.384;2023-10-13T16:32:44;7.22;;;2.47;;
56051;SDS011;41919;42.648;23.384;2023-10-13T16:35:13;5.97;;;2.00;;
56051;SDS011;41919;42.648;23.384;2023-10-13T16:37:43;6.13;;;2.00;;
56051;SDS011;41919;42.648;23.384;2023-10-13T16:40:19;5.28;;;2.70;;
56051;SDS011;41919;42.648;23.384;2023-10-13T16:42:48;5.93;;;2.30;;
56051;SDS011;41919;42.648;23.384;2023-10-13T16:45:17;4.35;;;2.40;;
56051;SDS011;41919;42.648;23.384;2023-10-13T16:47:47;4.45;;;2.28;;
56051;SDS011;41919;42.648;23.384;2023-10-13T16:50:14;9.90;;;3.38;;
56051;SDS011;41919;42.648;23.384;2023-10-13T16:52:39;6.47;;;2.10;;
56051;SDS011;41919;42.648;23.384;2023-10-13T16:55:07;6.97;;;2.97;;
56051;SDS011;41919;42.648;23.384;2023-10-13T16:57:34;6.07;;;2.50;;
56051;SDS011;41919;42.648;23.384;2023-10-13T16:59:59;7.22;;;2.45;;
56051;SDS011;41919;42.648;23.384;2023-10-13T17:02:28;7.15;;;3.00;;
56051;SDS011;41919;42.648;23.384;2023-10-13T17:04:54;9.48;;;3.13;;
56051;SDS011;41919;42.648;23.384;2023-10-13T17:07:22;6.68;;;2.90;;
56051;SDS011;41919;42.648;23.384;2023-10-13T17:09:49;18.30;;;6.38;;
56051;SDS011;41919;42.648;23.384;2023-10-13T17:12:15;8.10;;;3.20;;
56051;SDS011;41919;42.648;23.384;2023-10-13T17:14:40;4.97;;;2.58;;
56051;SDS011;41919;42.648;23.384;2023-10-13T17:17:06;10.13;;;3.22;;
56051;SDS011;41919;42.648;23.384;2023-10-13T17:19:31;9.60;;;2.83;;
56051;SDS011;41919;42.648;23.384;2023-10-13T17:21:56;11.43;;;3.00;;
56051;SDS011;41919;42.648;23.384;2023-10-13T17:24:23;5.35;;;2.72;;
56051;SDS011;41919;42.648;23.384;2023-10-13T17:26:48;10.65;;;2.95;;
56051;SDS011;41919;42.648;23.384;2023-10-13T17:29:15;7.50;;;2.95;;
56051;SDS011;41919;42.648;23.384;2023-10-13T17:31:40;8.10;;;2.72;;
56051;SDS011;41919;42.648;23.384;2023-10-13T17:34:06;9.07;;;2.78;;
56051;SDS011;41919;42.648;23.384;2023-10-13T17:36:31;4.72;;;3.42;;
56051;SDS011;41919;42.648;23.384;2023-10-13T17:38:56;10.25;;;3.95;;
56051;SDS011;41919;42.648;23.384;2023-10-13T17:41:22;5.68;;;3.10;;
56051;SDS011;41919;42.648;23.384;2023-10-13T17:43:53;8.88;;;3.30;;
56051;SDS011;41919;42.648;23.384;2023-10-13T17:46:18;6.47;;;3.40;;
56051;SDS011;41919;42.648;23.384;2023-10-13T17:48:47;10.00;;;3.28;;
56051;SDS011;41919;42.648;23.384;2023-10-13T17:51:13;9.82;;;3.85;;
56051;SDS011;41919;42.648;23.384;2023-10-13T17:53:38;12.43;;;3.35;;
56051;SDS011;41919;42.648;23.384;2023-10-13T17:58:31;9.82;;;3.50;;
56051;SDS011;41919;42.648;23.384;2023-10-13T18:00:56;6.47;;;3.30;;
56051;SDS011;41919;42.648;23.384;2023-10-13T18:03:22;6.20;;;3.22;;
56051;SDS011;41919;42.648;23.384;2023-10-13T18:05:47;4.65;;;2.40;;
56051;SDS011;41919;42.648;23.384;2023-10-13T18:08:13;8.38;;;2.65;;
56051;SDS011;41919;42.648;23.384;2023-10-13T18:10:38;10.35;;;3.08;;
56051;SDS011;41919;42.648;23.384;2023-10-13T18:13:08;7.25;;;2.85;;
